createdAt,value
2018-09-19T00:00:02.837Z,4.30
2018-09-19T00:02:31.635Z,3.37
2018-09-19T00:04:59.770Z,3.60
2018-09-19T00:07:27.875Z,4.03
2018-09-19T00:09:55.916Z,3.73
2018-09-19T00:12:24.030Z,3.57
2018-09-19T00:14:52.149Z,3.80
2018-09-19T00:17:20.301Z,4.17
2018-09-19T00:19:48.363Z,3.47
2018-09-19T00:22:16.435Z,3.63
2018-09-19T00:24:44.487Z,4.30
2018-09-19T00:27:12.531Z,4.00
2018-09-19T00:29:40.581Z,3.50
2018-09-19T00:32:08.690Z,3.73
2018-09-19T00:34:37.408Z,3.90
2018-09-19T00:37:05.488Z,3.30
2018-09-19T00:39:33.562Z,3.70
2018-09-19T00:42:01.618Z,3.80
2018-09-19T00:44:29.717Z,3.93
2018-09-19T00:46:57.891Z,3.67
2018-09-19T00:49:26.180Z,3.90
2018-09-19T00:51:54.318Z,3.83
2018-09-19T00:54:22.383Z,3.50
2018-09-19T00:56:50.473Z,4.23
2018-09-19T00:59:18.507Z,3.80
2018-09-19T01:01:46.540Z,3.30
2018-09-19T01:04:14.680Z,3.13
2018-09-19T01:06:42.781Z,4.17
2018-09-19T01:09:10.868Z,3.37
2018-09-19T01:11:39.338Z,3.87
2018-09-19T01:14:07.457Z,4.70
2018-09-19T01:16:35.622Z,4.37
2018-09-19T01:19:03.703Z,3.63
2018-09-19T01:21:31.785Z,3.87
2018-09-19T01:23:59.863Z,3.57
2018-09-19T01:26:27.912Z,3.57
2018-09-19T01:28:55.995Z,4.67
2018-09-19T01:31:24.068Z,4.10
2018-09-19T01:33:52.177Z,4.10
2018-09-19T01:36:20.231Z,4.37
2018-09-19T01:38:48.326Z,4.50
2018-09-19T01:41:16.391Z,4.53
2018-09-19T01:43:44.515Z,3.80
2018-09-19T01:46:12.626Z,3.97
2018-09-19T01:48:40.680Z,3.70
2018-09-19T01:51:08.820Z,3.70
2018-09-19T01:53:36.923Z,4.27
2018-09-19T01:56:05.023Z,3.93
2018-09-19T01:58:33.089Z,4.77
2018-09-19T02:01:01.213Z,4.77
2018-09-19T02:03:29.254Z,4.00
2018-09-19T02:05:57.329Z,4.17
2018-09-19T02:08:25.364Z,4.13
2018-09-19T02:10:53.444Z,4.00
2018-09-19T02:13:21.543Z,4.53
2018-09-19T02:15:49.572Z,3.80
2018-09-19T02:18:17.675Z,4.10
2018-09-19T02:20:45.765Z,3.87
2018-09-19T02:23:13.848Z,4.00
2018-09-19T02:25:41.892Z,4.50
2018-09-19T02:28:10.060Z,3.53
2018-09-19T02:30:38.109Z,4.00
2018-09-19T02:33:06.289Z,3.93
2018-09-19T02:35:34.323Z,3.73
2018-09-19T02:38:02.391Z,3.83
2018-09-19T02:40:30.468Z,3.43
2018-09-19T02:42:58.531Z,3.80
2018-09-19T02:45:26.603Z,4.07
2018-09-19T02:47:54.664Z,3.40
2018-09-19T02:50:22.750Z,4.27
2018-09-19T02:52:55.713Z,3.90
2018-09-19T02:55:24.732Z,4.13
2018-09-19T02:57:52.834Z,4.17
2018-09-19T03:00:21.040Z,4.03
2018-09-19T03:02:49.428Z,4.20
2018-09-19T03:05:17.570Z,4.27
2018-09-19T03:07:45.744Z,3.70
2018-09-19T03:10:13.821Z,4.87
2018-09-19T03:12:42.048Z,4.80
2018-09-19T03:15:10.097Z,4.27
2018-09-19T03:17:38.269Z,3.63
2018-09-19T03:20:06.254Z,4.37
2018-09-19T03:22:34.372Z,4.43
2018-09-19T03:25:02.570Z,3.90
2018-09-19T03:27:30.635Z,4.40
2018-09-19T03:29:58.725Z,4.70
2018-09-19T03:32:26.802Z,4.40
2018-09-19T03:34:54.887Z,4.37
2018-09-19T03:37:22.973Z,3.57
2018-09-19T03:39:51.024Z,4.57
2018-09-19T03:42:19.110Z,4.77
2018-09-19T03:44:47.165Z,3.23
2018-09-19T03:47:15.286Z,3.40
2018-09-19T03:49:43.349Z,4.47
2018-09-19T03:52:11.422Z,4.20
2018-09-19T03:54:39.497Z,4.30
2018-09-19T03:57:07.610Z,3.53
2018-09-19T03:59:35.672Z,4.97
2018-09-19T04:02:03.754Z,4.70
2018-09-19T04:04:31.813Z,5.37
2018-09-19T04:06:59.897Z,3.87
2018-09-19T04:09:27.965Z,3.30
2018-09-19T04:11:56.005Z,4.37
2018-09-19T04:14:24.089Z,4.47
2018-09-19T04:16:52.145Z,4.37
2018-09-19T04:19:20.244Z,4.53
2018-09-19T04:21:50.392Z,4.10
2018-09-19T04:24:18.535Z,4.00
2018-09-19T04:26:46.749Z,3.70
2018-09-19T04:29:15.007Z,4.20
2018-09-19T04:31:43.399Z,3.40
2018-09-19T04:34:11.442Z,5.10
2018-09-19T04:36:39.591Z,4.63
2018-09-19T04:39:09.468Z,4.70
2018-09-19T04:41:37.638Z,4.30
2018-09-19T04:44:06.509Z,4.63
2018-09-19T04:46:34.788Z,4.37
2018-09-19T04:49:02.910Z,4.40
2018-09-19T04:51:31.013Z,4.63
2018-09-19T04:53:59.075Z,4.37
2018-09-19T04:56:27.153Z,4.27
2018-09-19T04:58:55.233Z,5.17
2018-09-19T05:01:23.352Z,4.43
2018-09-19T05:03:51.417Z,3.67
2018-09-19T05:06:19.475Z,5.13
2018-09-19T05:08:47.583Z,4.37
2018-09-19T05:11:15.710Z,4.80
2018-09-19T05:13:43.740Z,5.60
2018-09-19T05:16:11.800Z,4.90
2018-09-19T05:18:39.888Z,4.63
2018-09-19T05:21:08.085Z,3.50
2018-09-19T05:23:36.324Z,4.33
2018-09-19T05:26:04.417Z,4.30
2018-09-19T05:28:32.521Z,3.63
2018-09-19T05:31:00.970Z,4.07
2018-09-19T05:33:29.091Z,3.97
2018-09-19T05:35:57.148Z,4.43
2018-09-19T05:38:25.281Z,4.10
2018-09-19T05:40:53.738Z,4.30
2018-09-19T05:43:21.989Z,4.10
2018-09-19T05:45:50.067Z,4.27
2018-09-19T05:48:18.175Z,4.30
2018-09-19T05:50:46.218Z,4.63
2018-09-19T05:53:14.348Z,5.30
2018-09-19T05:55:42.452Z,5.73
2018-09-19T05:58:10.552Z,4.97
2018-09-19T06:00:38.625Z,4.73
2018-09-19T06:03:06.763Z,5.23
2018-09-19T06:05:34.853Z,5.63
2018-09-19T06:08:03.019Z,5.57
2018-09-19T06:10:31.128Z,5.50
2018-09-19T06:12:59.308Z,5.80
2018-09-19T06:15:27.424Z,5.97
2018-09-19T06:17:55.504Z,5.03
2018-09-19T06:20:23.648Z,5.73
2018-09-19T06:22:51.732Z,4.90
2018-09-19T06:25:19.879Z,4.80
2018-09-19T06:27:48.001Z,4.93
2018-09-19T06:30:16.102Z,4.33
2018-09-19T06:32:44.159Z,4.77
2018-09-19T06:35:12.259Z,5.40
2018-09-19T06:37:40.359Z,5.97
2018-09-19T06:40:08.519Z,5.10
2018-09-19T06:42:37.393Z,5.03
2018-09-19T06:45:05.574Z,4.80
2018-09-19T06:47:33.651Z,4.60
2018-09-19T06:50:01.749Z,4.73
2018-09-19T06:52:29.876Z,5.23
2018-09-19T06:54:57.868Z,5.37
2018-09-19T06:57:25.937Z,5.37
2018-09-19T06:59:54.171Z,4.60
2018-09-19T07:02:22.208Z,4.87
2018-09-19T07:04:51.222Z,5.57
2018-09-19T07:07:19.950Z,4.80
2018-09-19T07:09:48.117Z,4.57
2018-09-19T07:12:16.174Z,4.43
2018-09-19T07:14:44.226Z,4.53
2018-09-19T07:17:12.272Z,4.13
2018-09-19T07:19:40.343Z,4.47
2018-09-19T07:22:08.413Z,5.20
2018-09-19T07:24:36.477Z,4.77
2018-09-19T07:27:04.697Z,4.00
2018-09-19T07:29:32.776Z,4.83
2018-09-19T07:32:00.855Z,4.93
2018-09-19T07:34:28.955Z,4.87
2018-09-19T07:36:57.033Z,5.50
2018-09-19T07:39:25.993Z,4.63
2018-09-19T07:41:54.069Z,4.83
2018-09-19T07:44:22.249Z,4.90
2018-09-19T07:46:50.320Z,4.83
2018-09-19T07:49:18.385Z,4.62
2018-09-19T07:51:46.452Z,5.05
2018-09-19T07:54:14.544Z,4.78
2018-09-19T07:56:42.620Z,5.85
2018-09-19T07:59:11.178Z,5.83
2018-09-19T08:01:39.290Z,5.50
2018-09-19T08:04:07.441Z,5.33
2018-09-19T08:06:35.491Z,5.40
2018-09-19T08:09:04.371Z,5.90
2018-09-19T08:11:32.457Z,5.97
2018-09-19T08:14:01.316Z,5.20
2018-09-19T08:16:29.405Z,5.42
2018-09-19T08:18:57.468Z,5.05
2018-09-19T08:21:25.771Z,6.20
2018-09-19T08:23:53.826Z,5.35
2018-09-19T08:26:21.919Z,5.10
2018-09-19T08:28:49.980Z,5.28
2018-09-19T08:31:18.042Z,5.22
2018-09-19T08:33:46.317Z,6.15
2018-09-19T08:36:14.392Z,6.30
2018-09-19T08:38:42.480Z,5.12
2018-09-19T08:41:10.548Z,5.17
2018-09-19T08:43:38.605Z,5.58
2018-09-19T08:46:06.666Z,5.12
2018-09-19T08:48:34.721Z,4.55
2018-09-19T08:51:02.874Z,5.67
2018-09-19T08:53:30.886Z,4.75
2018-09-19T08:55:58.945Z,4.83
2018-09-19T08:58:27.043Z,5.17
2018-09-19T09:00:55.176Z,5.00
2018-09-19T09:03:23.234Z,6.00
2018-09-19T09:05:51.288Z,4.97
2018-09-19T09:08:19.377Z,5.65
2018-09-19T09:10:47.476Z,4.53
2018-09-19T09:13:16.079Z,5.12
2018-09-19T09:15:44.135Z,4.42
2018-09-19T09:18:12.229Z,4.62
2018-09-19T09:20:40.484Z,4.95
2018-09-19T09:23:08.667Z,5.47
2018-09-19T09:25:36.740Z,5.25
2018-09-19T09:28:04.937Z,5.72
2018-09-19T09:30:33.116Z,5.62
2018-09-19T09:33:01.184Z,4.97
2018-09-19T09:35:29.238Z,5.00
2018-09-19T09:37:57.320Z,4.60
2018-09-19T09:40:25.539Z,5.20
2018-09-19T09:42:53.530Z,5.22
2018-09-19T09:45:21.612Z,5.60
2018-09-19T09:47:50.693Z,5.33
2018-09-19T09:50:18.807Z,5.37
2018-09-19T09:52:46.852Z,5.90
2018-09-19T09:55:14.951Z,5.42
2018-09-19T09:57:43.156Z,5.08
2018-09-19T10:00:11.240Z,6.25
2018-09-19T10:02:39.346Z,5.55
2018-09-19T10:05:07.483Z,5.17
2018-09-19T10:07:35.613Z,5.42
2018-09-19T10:10:03.698Z,5.03
2018-09-19T10:12:31.838Z,4.97
2018-09-19T10:14:59.917Z,4.72
2018-09-19T10:17:27.970Z,5.00
2018-09-19T10:19:56.114Z,4.58
2018-09-19T10:22:24.163Z,5.33
2018-09-19T10:24:52.238Z,4.15
2018-09-19T10:27:20.304Z,4.67
2018-09-19T10:29:48.372Z,4.25
2018-09-19T10:32:16.445Z,4.67
2018-09-19T10:34:44.502Z,5.10
2018-09-19T10:37:12.637Z,4.92
2018-09-19T10:39:40.789Z,4.87
2018-09-19T10:42:09.163Z,5.60
2018-09-19T10:44:37.233Z,4.55
2018-09-19T10:47:05.300Z,5.22
2018-09-19T10:49:33.390Z,4.10
2018-09-19T10:52:01.423Z,4.75
2018-09-19T10:54:29.495Z,5.15
2018-09-19T10:56:57.653Z,5.03
2018-09-19T10:59:25.714Z,4.62
2018-09-19T11:01:53.832Z,5.20
2018-09-19T11:04:21.903Z,5.03
2018-09-19T11:06:50.038Z,4.60
2018-09-19T11:09:18.146Z,4.83
2018-09-19T11:11:46.244Z,4.25
2018-09-19T11:14:14.307Z,4.33
2018-09-19T11:16:42.414Z,5.20
2018-09-19T11:19:10.589Z,5.33
2018-09-19T11:21:38.700Z,4.90
2018-09-19T11:24:07.486Z,5.50
2018-09-19T11:26:35.596Z,5.55
2018-09-19T11:29:03.710Z,4.97
2018-09-19T11:31:31.855Z,4.85
2018-09-19T11:33:59.897Z,4.60
2018-09-19T11:36:28.050Z,4.67
2018-09-19T11:38:56.127Z,4.50
2018-09-19T11:41:24.196Z,4.90
2018-09-19T11:43:52.269Z,5.35
2018-09-19T11:46:20.320Z,5.00
2018-09-19T11:48:48.408Z,5.20
2018-09-19T11:51:16.483Z,4.85
2018-09-19T11:53:44.592Z,4.83
2018-09-19T11:56:12.673Z,4.78
2018-09-19T11:58:40.730Z,5.17
2018-09-19T12:01:08.826Z,5.30
2018-09-19T12:03:36.908Z,5.25
2018-09-19T12:06:05.114Z,5.28
2018-09-19T12:08:37.921Z,5.45
2018-09-19T12:11:06.325Z,4.45
2018-09-19T12:13:34.389Z,4.83
2018-09-19T12:16:02.479Z,4.60
2018-09-19T12:18:30.605Z,4.58
2018-09-19T12:20:58.716Z,4.47
2018-09-19T12:23:26.807Z,4.35
2018-09-19T12:25:54.853Z,4.83
2018-09-19T12:28:23.003Z,4.45
2018-09-19T12:30:51.090Z,4.90
2018-09-19T12:33:19.260Z,4.47
2018-09-19T12:35:47.354Z,4.17
2018-09-19T12:38:15.503Z,4.55
2018-09-19T12:40:43.639Z,4.72
2018-09-19T12:43:11.752Z,4.50
2018-09-19T12:45:39.924Z,4.47
2018-09-19T12:48:08.029Z,4.28
2018-09-19T12:50:36.170Z,4.95
2018-09-19T12:53:04.272Z,4.40
2018-09-19T12:55:32.346Z,4.47
2018-09-19T12:58:00.540Z,4.10
2018-09-19T13:00:28.871Z,4.53
2018-09-19T13:02:56.955Z,4.50
2018-09-19T13:05:25.095Z,4.60
2018-09-19T13:07:53.148Z,4.37
2018-09-19T13:10:21.252Z,4.03
2018-09-19T13:12:49.334Z,5.37
2018-09-19T13:15:17.418Z,4.60
2018-09-19T13:17:45.515Z,4.83
2018-09-19T13:20:13.586Z,4.97
2018-09-19T13:22:41.668Z,4.30
2018-09-19T13:25:09.735Z,5.08
2018-09-19T13:27:37.768Z,5.00
2018-09-19T13:30:05.921Z,4.55
2018-09-19T13:32:34.048Z,4.10
2018-09-19T13:35:02.163Z,4.87
2018-09-19T13:37:30.485Z,4.95
2018-09-19T13:39:58.818Z,4.95
2018-09-19T13:42:26.992Z,5.12
2018-09-19T13:44:55.166Z,4.47
2018-09-19T13:47:23.283Z,5.53
2018-09-19T13:49:57.967Z,4.83
2018-09-19T13:52:26.080Z,4.58
2018-09-19T13:54:54.258Z,4.30
2018-09-19T13:57:22.534Z,4.20
2018-09-19T13:59:50.705Z,4.33
2018-09-19T14:02:19.146Z,4.55
2018-09-19T14:04:47.324Z,4.62
2018-09-19T14:07:15.535Z,4.15
2018-09-19T14:09:43.669Z,3.95
2018-09-19T14:12:11.950Z,4.30
2018-09-19T14:14:40.158Z,3.72
2018-09-19T14:17:08.397Z,4.10
2018-09-19T14:19:36.607Z,4.33
2018-09-19T14:22:04.752Z,4.35
2018-09-19T14:24:32.850Z,4.42
2018-09-19T14:27:01.099Z,4.65
2018-09-19T14:29:29.475Z,4.20
2018-09-19T14:31:57.648Z,4.20
2018-09-19T14:34:25.749Z,4.10
2018-09-19T14:36:53.925Z,4.67
2018-09-19T14:39:22.204Z,4.00
2018-09-19T14:41:50.372Z,3.80
2018-09-19T14:44:18.531Z,3.90
2018-09-19T14:46:46.626Z,4.00
2018-09-19T14:49:14.793Z,3.73
2018-09-19T14:51:42.947Z,3.83
2018-09-19T14:54:11.139Z,4.47
2018-09-19T14:56:39.291Z,4.47
2018-09-19T14:59:07.392Z,3.70
2018-09-19T15:01:35.498Z,4.00
2018-09-19T15:04:03.601Z,4.00
2018-09-19T15:06:31.656Z,3.83
2018-09-19T15:08:59.733Z,4.17
2018-09-19T15:11:27.837Z,3.53
2018-09-19T15:13:55.928Z,3.50
2018-09-19T15:16:23.966Z,4.10
2018-09-19T15:18:52.062Z,3.60
2018-09-19T15:21:20.188Z,3.90
2018-09-19T15:23:48.360Z,3.80
2018-09-19T15:26:16.379Z,3.97
2018-09-19T15:28:44.459Z,3.97
2018-09-19T15:31:12.556Z,3.80
2018-09-19T15:33:40.633Z,3.53
2018-09-19T15:36:08.774Z,3.77
2018-09-19T15:38:36.802Z,3.50
2018-09-19T15:41:04.868Z,3.73
2018-09-19T15:43:33.066Z,3.43
2018-09-19T15:46:01.199Z,4.00
2018-09-19T15:48:29.335Z,3.67
2018-09-19T15:50:57.442Z,3.67
2018-09-19T15:53:29.891Z,4.07
2018-09-19T15:55:58.079Z,4.80
2018-09-19T15:58:26.232Z,3.70
2018-09-19T16:00:54.370Z,4.70
2018-09-19T16:03:22.797Z,4.70
2018-09-19T16:05:51.244Z,3.63
2018-09-19T16:08:19.296Z,4.03
2018-09-19T16:10:47.394Z,4.20
2018-09-19T16:13:15.593Z,4.30
2018-09-19T16:15:43.660Z,3.33
2018-09-19T16:18:11.760Z,3.60
2018-09-19T16:20:39.866Z,4.37
2018-09-19T16:23:07.989Z,3.70
2018-09-19T16:25:36.123Z,3.87
2018-09-19T16:28:04.256Z,3.60
2018-09-19T16:30:32.402Z,3.43
2018-09-19T16:33:00.514Z,3.63
2018-09-19T16:35:28.578Z,4.33
2018-09-19T16:37:57.034Z,3.73
2018-09-19T16:40:25.290Z,4.63
2018-09-19T16:42:53.754Z,4.80
2018-09-19T16:45:21.971Z,4.30
2018-09-19T16:47:50.219Z,5.67
2018-09-19T16:50:18.634Z,4.23
2018-09-19T16:52:46.806Z,6.30
2018-09-19T16:55:15.214Z,4.53
2018-09-19T16:57:43.404Z,5.07
2018-09-19T17:00:14.007Z,4.77
2018-09-19T17:02:42.329Z,4.70
2018-09-19T17:05:10.653Z,6.17
2018-09-19T17:07:38.903Z,4.53
2018-09-19T17:10:07.365Z,5.60
2018-09-19T17:12:36.287Z,4.43
2018-09-19T17:15:05.398Z,5.43
2018-09-19T17:17:34.365Z,5.07
2018-09-19T17:20:02.741Z,4.03
2018-09-19T17:22:31.320Z,4.43
2018-09-19T17:25:00.487Z,4.60
2018-09-19T17:27:28.689Z,4.77
2018-09-19T17:29:58.774Z,4.60
2018-09-19T17:32:27.153Z,5.20
2018-09-19T17:34:56.789Z,5.20
2018-09-19T17:37:25.651Z,5.07
2018-09-19T17:39:53.955Z,5.17
2018-09-19T17:42:22.576Z,5.53
2018-09-19T17:44:51.015Z,5.20
2018-09-19T17:47:19.407Z,4.23
2018-09-19T17:49:47.842Z,4.40
2018-09-19T17:52:16.139Z,5.37
2018-09-19T17:54:44.500Z,4.90
2018-09-19T17:57:12.866Z,3.90
2018-09-19T17:59:41.065Z,4.97
2018-09-19T18:02:09.348Z,5.17
2018-09-19T18:04:37.500Z,5.17
2018-09-19T18:07:06.152Z,4.80
2018-09-19T18:09:34.601Z,4.60
2018-09-19T18:12:02.988Z,5.13
2018-09-19T18:14:31.315Z,5.90
2018-09-19T18:16:59.636Z,4.83
2018-09-19T18:19:28.125Z,4.83
2018-09-19T18:21:56.476Z,5.10
2018-09-19T18:24:24.764Z,5.47
2018-09-19T18:26:53.028Z,4.70
2018-09-19T18:29:21.258Z,4.77
2018-09-19T18:31:49.520Z,5.53
2018-09-19T18:34:17.689Z,4.63
2018-09-19T18:36:45.965Z,5.07
2018-09-19T18:39:14.212Z,4.50
2018-09-19T18:41:42.345Z,5.60
2018-09-19T18:44:10.591Z,6.37
2018-09-19T18:46:38.735Z,5.07
2018-09-19T18:49:07.051Z,5.80
2018-09-19T18:51:35.323Z,5.70
2018-09-19T18:54:04.637Z,4.93
2018-09-19T18:56:33.493Z,5.17
2018-09-19T18:59:02.013Z,5.57
2018-09-19T19:01:30.615Z,5.00
2018-09-19T19:03:58.949Z,5.40
2018-09-19T19:06:27.158Z,5.43
2018-09-19T19:08:55.407Z,5.40
2018-09-19T19:11:23.722Z,4.93
2018-09-19T19:13:51.999Z,5.37
2018-09-19T19:16:20.185Z,5.67
2018-09-19T19:18:49.047Z,5.00
2018-09-19T19:21:17.412Z,5.50
2018-09-19T19:23:45.680Z,5.83
2018-09-19T19:26:13.917Z,4.17
2018-09-19T19:28:42.810Z,4.87
2018-09-19T19:31:10.958Z,5.70
2018-09-19T19:33:39.677Z,4.67
2018-09-19T19:36:08.553Z,6.43
2018-09-19T19:38:41.135Z,5.23
2018-09-19T19:41:09.556Z,5.23
2018-09-19T19:43:37.639Z,4.77
2018-09-19T19:46:05.878Z,6.33
2018-09-19T19:48:33.966Z,5.70
2018-09-19T19:51:02.030Z,5.93
2018-09-19T19:53:30.234Z,5.40
2018-09-19T19:55:58.304Z,5.43
2018-09-19T19:58:26.449Z,5.20
2018-09-19T20:00:54.540Z,4.60
2018-09-19T20:03:22.672Z,5.90
2018-09-19T20:05:50.726Z,5.37
2018-09-19T20:08:19.171Z,4.77
2018-09-19T20:10:47.299Z,5.03
2018-09-19T20:13:15.488Z,4.23
2018-09-19T20:15:43.703Z,4.67
2018-09-19T20:18:11.842Z,5.17
2018-09-19T20:20:39.987Z,5.47
2018-09-19T20:23:08.154Z,5.30
2018-09-19T20:25:36.496Z,4.73
2018-09-19T20:28:04.759Z,4.57
2018-09-19T20:30:32.900Z,4.80
2018-09-19T20:33:01.024Z,4.80
2018-09-19T20:35:29.311Z,4.60
2018-09-19T20:37:57.436Z,4.70
2018-09-19T20:40:25.639Z,4.63
2018-09-19T20:42:53.739Z,4.37
2018-09-19T20:45:21.860Z,4.03
2018-09-19T20:47:49.960Z,5.33
2018-09-19T20:50:18.036Z,4.67
2018-09-19T20:52:46.154Z,4.73
2018-09-19T20:55:14.344Z,4.60
2018-09-19T20:57:42.560Z,4.40
2018-09-19T21:00:10.797Z,4.97
2018-09-19T21:02:39.010Z,4.70
2018-09-19T21:05:07.169Z,4.70
2018-09-19T21:07:35.375Z,5.00
2018-09-19T21:10:03.661Z,4.67
2018-09-19T21:12:31.911Z,4.27
2018-09-19T21:15:00.021Z,4.53
2018-09-19T21:17:28.233Z,5.17
2018-09-19T21:19:56.530Z,5.37
2018-09-19T21:22:24.878Z,5.10
2018-09-19T21:24:52.854Z,4.67
2018-09-19T21:27:20.962Z,4.43
2018-09-19T21:29:49.061Z,4.73
2018-09-19T21:32:17.254Z,4.63
2018-09-19T21:34:45.335Z,4.90
2018-09-19T21:37:13.609Z,5.17
2018-09-19T21:39:41.769Z,5.00
2018-09-19T21:42:13.829Z,5.47
2018-09-19T21:44:42.103Z,4.70
2018-09-19T21:47:10.389Z,4.63
2018-09-19T21:49:38.607Z,6.47
2018-09-19T21:52:06.793Z,5.77
2018-09-19T21:54:35.091Z,5.37
2018-09-19T21:57:03.486Z,5.33
2018-09-19T21:59:31.733Z,4.93
2018-09-19T22:02:00.743Z,5.10
2018-09-19T22:04:29.891Z,4.47
2018-09-19T22:06:58.239Z,4.73
2018-09-19T22:09:26.414Z,5.17
2018-09-19T22:11:54.601Z,4.40
2018-09-19T22:14:22.799Z,5.03
2018-09-19T22:16:51.044Z,4.80
2018-09-19T22:19:19.403Z,5.43
2018-09-19T22:21:47.634Z,5.70
2018-09-19T22:24:15.771Z,4.83
2018-09-19T22:26:43.968Z,4.67
2018-09-19T22:29:12.131Z,4.40
2018-09-19T22:31:40.271Z,4.87
2018-09-19T22:34:08.353Z,3.70
2018-09-19T22:36:36.428Z,5.27
2018-09-19T22:39:06.926Z,4.90
2018-09-19T22:41:35.116Z,5.13
2018-09-19T22:44:03.221Z,4.33
2018-09-19T22:46:31.268Z,4.27
2018-09-19T22:48:59.359Z,5.00
2018-09-19T22:51:27.878Z,4.90
2018-09-19T22:53:56.144Z,4.53
2018-09-19T22:56:24.310Z,4.57
2018-09-19T22:58:52.417Z,4.60
2018-09-19T23:01:20.474Z,4.50
2018-09-19T23:03:48.567Z,4.60
2018-09-19T23:06:17.141Z,4.03
2018-09-19T23:08:45.278Z,4.87
2018-09-19T23:11:13.351Z,4.70
2018-09-19T23:13:41.482Z,4.40
2018-09-19T23:16:09.576Z,4.33
2018-09-19T23:18:37.683Z,4.50
2018-09-19T23:21:05.814Z,5.07
2018-09-19T23:23:33.960Z,4.27
2018-09-19T23:26:02.114Z,4.60
2018-09-19T23:28:30.229Z,4.27
2018-09-19T23:30:58.294Z,4.43
2018-09-19T23:33:26.470Z,4.60
2018-09-19T23:35:54.592Z,4.40
2018-09-19T23:38:22.799Z,4.10
2018-09-19T23:40:50.857Z,4.70
2018-09-19T23:43:18.941Z,4.83
2018-09-19T23:45:47.103Z,4.23
2018-09-19T23:48:15.165Z,4.40
2018-09-19T23:50:43.284Z,5.47
2018-09-19T23:53:11.399Z,4.50
2018-09-19T23:55:39.461Z,4.70
2018-09-19T23:58:07.625Z,5.37
